sensor_id;sensor_type;location;lat;lon;timestamp;pressure;altitude;pressure_sealevel;temperature;humidity
40918;BME280;26644;50.248;19.032;2023-02-12T00:01:59;99355.22;;;4.62;84.87
40918;BME280;26644;50.248;19.032;2023-02-12T00:05:07;99353.34;;;4.56;85.30
40918;BME280;26644;50.248;19.032;2023-02-12T00:08:13;99363.78;;;4.66;85.28
40918;BME280;26644;50.248;19.032;2023-02-12T00:11:20;99335.41;;;4.48;85.01
40918;BME280;26644;50.248;19.032;2023-02-12T00:14:27;99366.09;;;4.62;85.02
40918;BME280;26644;50.248;19.032;2023-02-12T00:17:33;99359.00;;;4.61;85.19
40918;BME280;26644;50.248;19.032;2023-02-12T00:20:41;99360.66;;;4.62;85.35
40918;BME280;26644;50.248;19.032;2023-02-12T00:23:46;99374.06;;;4.64;85.36
40918;BME280;26644;50.248;19.032;2023-02-12T00:26:52;99372.56;;;4.68;85.39
40918;BME280;26644;50.248;19.032;2023-02-12T00:29:57;99376.34;;;4.67;85.25
40918;BME280;26644;50.248;19.032;2023-02-12T00:33:02;99361.72;;;4.54;84.99
40918;BME280;26644;50.248;19.032;2023-02-12T00:36:13;99377.38;;;4.66;85.42
40918;BME280;26644;50.248;19.032;2023-02-12T00:39:20;99377.16;;;4.67;85.23
40918;BME280;26644;50.248;19.032;2023-02-12T00:42:25;99375.06;;;4.69;85.39
40918;BME280;26644;50.248;19.032;2023-02-12T00:45:31;99375.34;;;4.61;84.85
40918;BME280;26644;50.248;19.032;2023-02-12T00:48:38;99377.81;;;4.63;84.95
40918;BME280;26644;50.248;19.032;2023-02-12T00:51:46;99388.44;;;4.71;85.23
40918;BME280;26644;50.248;19.032;2023-02-12T00:54:51;99381.97;;;4.72;85.04
40918;BME280;26644;50.248;19.032;2023-02-12T00:57:57;99386.56;;;4.71;85.10
40918;BME280;26644;50.248;19.032;2023-02-12T01:01:03;99386.56;;;4.71;84.86
40918;BME280;26644;50.248;19.032;2023-02-12T01:04:10;99390.13;;;4.72;85.17
40918;BME280;26644;50.248;19.032;2023-02-12T01:07:18;99398.47;;;4.77;85.10
40918;BME280;26644;50.248;19.032;2023-02-12T01:10:25;99398.47;;;4.77;84.69
40918;BME280;26644;50.248;19.032;2023-02-12T01:13:31;99388.84;;;4.74;84.75
40918;BME280;26644;50.248;19.032;2023-02-12T01:16:38;99399.50;;;4.76;84.79
40918;BME280;26644;50.248;19.032;2023-02-12T01:19:43;99387.84;;;4.69;84.59
40918;BME280;26644;50.248;19.032;2023-02-12T01:22:51;99403.06;;;4.76;84.89
40918;BME280;26644;50.248;19.032;2023-02-12T01:25:57;99407.69;;;4.76;84.70
40918;BME280;26644;50.248;19.032;2023-02-12T01:29:05;99403.06;;;4.76;84.82
40918;BME280;26644;50.248;19.032;2023-02-12T01:32:11;99386.81;;;4.56;84.64
40918;BME280;26644;50.248;19.032;2023-02-12T01:35:17;99399.78;;;4.68;84.61
40918;BME280;26644;50.248;19.032;2023-02-12T01:38:24;99416.28;;;4.73;84.70
40918;BME280;26644;50.248;19.032;2023-02-12T01:41:32;99426.31;;;4.72;84.68
40918;BME280;26644;50.248;19.032;2023-02-12T01:44:43;99416.31;;;4.66;84.84
40918;BME280;26644;50.248;19.032;2023-02-12T01:48:10;99423.59;;;4.72;84.82
40918;BME280;26644;50.248;19.032;2023-02-12T01:51:19;99425.03;;;4.75;85.07
40918;BME280;26644;50.248;19.032;2023-02-12T01:54:33;99430.72;;;4.73;84.92
40918;BME280;26644;50.248;19.032;2023-02-12T01:57:43;99438.47;;;4.70;84.71
40918;BME280;26644;50.248;19.032;2023-02-12T02:00:52;99448.75;;;4.68;85.05
40918;BME280;26644;50.248;19.032;2023-02-12T02:04:01;99442.88;;;4.71;85.24
40918;BME280;26644;50.248;19.032;2023-02-12T02:07:12;99441.81;;;4.72;85.32
40918;BME280;26644;50.248;19.032;2023-02-12T02:10:21;99427.41;;;4.65;85.06
40918;BME280;26644;50.248;19.032;2023-02-12T02:13:28;99451.00;;;4.77;84.78
40918;BME280;26644;50.248;19.032;2023-02-12T02:17:00;99462.72;;;4.78;84.92
40918;BME280;26644;50.248;19.032;2023-02-12T02:28:19;99460.00;;;4.78;84.71
40918;BME280;26644;50.248;19.032;2023-02-12T02:31:42;99466.03;;;4.87;84.59
40918;BME280;26644;50.248;19.032;2023-02-12T02:34:57;99464.16;;;4.81;84.17
40918;BME280;26644;50.248;19.032;2023-02-12T02:38:23;99466.47;;;4.84;84.62
40918;BME280;26644;50.248;19.032;2023-02-12T02:41:40;99481.94;;;4.83;84.61
40918;BME280;26644;50.248;19.032;2023-02-12T02:45:03;99489.28;;;4.83;84.58
40918;BME280;26644;50.248;19.032;2023-02-12T02:48:21;99499.72;;;4.86;84.79
40918;BME280;26644;50.248;19.032;2023-02-12T02:51:35;99502.03;;;4.89;84.75
40918;BME280;26644;50.248;19.032;2023-02-12T02:54:48;99485.28;;;4.85;84.24
40918;BME280;26644;50.248;19.032;2023-02-12T02:58:04;99482.34;;;4.87;84.68
40918;BME280;26644;50.248;19.032;2023-02-12T03:01:16;99502.44;;;4.86;84.46
40918;BME280;26644;50.248;19.032;2023-02-12T03:04:34;99508.97;;;4.85;84.46
40918;BME280;26644;50.248;19.032;2023-02-12T03:07:48;99506.25;;;4.78;84.35
40918;BME280;26644;50.248;19.032;2023-02-12T03:11:04;99510.41;;;4.81;84.36
40918;BME280;26644;50.248;19.032;2023-02-12T03:14:20;99523.81;;;4.82;84.19
40918;BME280;26644;50.248;19.032;2023-02-12T03:17:33;99511.28;;;4.74;84.22
40918;BME280;26644;50.248;19.032;2023-02-12T03:20:48;99533.63;;;4.83;83.88
40918;BME280;26644;50.248;19.032;2023-02-12T03:24:01;99518.41;;;4.75;84.03
40918;BME280;26644;50.248;19.032;2023-02-12T03:27:19;99551.22;;;4.87;83.81
40918;BME280;26644;50.248;19.032;2023-02-12T03:30:49;99548.91;;;4.84;83.63
40918;BME280;26644;50.248;19.032;2023-02-12T03:34:06;99558.13;;;4.83;83.69
40918;BME280;26644;50.248;19.032;2023-02-12T03:37:26;99554.38;;;4.77;83.47
40918;BME280;26644;50.248;19.032;2023-02-12T03:40:41;99566.31;;;4.76;83.53
40918;BME280;26644;50.248;19.032;2023-02-12T03:44:04;99576.59;;;4.74;83.64
40918;BME280;26644;50.248;19.032;2023-02-12T03:47:24;99566.34;;;4.70;83.83
40918;BME280;26644;50.248;19.032;2023-02-12T03:50:46;99585.56;;;4.75;83.46
40918;BME280;26644;50.248;19.032;2023-02-12T03:54:00;99591.66;;;4.77;83.53
40918;BME280;26644;50.248;19.032;2023-02-12T03:57:11;99604.63;;;4.75;83.34
40918;BME280;26644;50.248;19.032;2023-02-12T04:00:22;99561.34;;;4.47;83.42
40918;BME280;26644;50.248;19.032;2023-02-12T04:03:30;99614.91;;;4.73;83.23
40918;BME280;26644;50.248;19.032;2023-02-12T04:06:36;99612.78;;;4.75;83.21
40918;BME280;26644;50.248;19.032;2023-02-12T04:09:45;99616.75;;;4.72;82.78
40918;BME280;26644;50.248;19.032;2023-02-12T04:12:56;99606.34;;;4.63;83.08
40918;BME280;26644;50.248;19.032;2023-02-12T04:16:21;99608.00;;;4.57;83.07
40918;BME280;26644;50.248;19.032;2023-02-12T04:19:41;99627.25;;;4.62;82.83
40918;BME280;26644;50.248;19.032;2023-02-12T04:23:11;99637.72;;;4.72;82.71
40918;BME280;26644;50.248;19.032;2023-02-12T04:26:35;99637.94;;;4.70;82.95
40918;BME280;26644;50.248;19.032;2023-02-12T04:29:52;99641.91;;;4.74;82.73
40918;BME280;26644;50.248;19.032;2023-02-12T04:33:05;99637.28;;;4.75;82.48
40918;BME280;26644;50.248;19.032;2023-02-12T04:36:20;99627.88;;;4.71;82.66
40918;BME280;26644;50.248;19.032;2023-02-12T04:39:34;99643.75;;;4.74;82.32
40918;BME280;26644;50.248;19.032;2023-02-12T04:42:48;99647.34;;;4.74;82.39
40918;BME280;26644;50.248;19.032;2023-02-12T04:45:54;99642.53;;;4.63;82.25
40918;BME280;26644;50.248;19.032;2023-02-12T04:49:00;99649.22;;;4.60;82.29
40918;BME280;26644;50.248;19.032;2023-02-12T04:52:05;99656.13;;;4.63;82.53
40918;BME280;26644;50.248;19.032;2023-02-12T04:55:11;99665.34;;;4.69;82.33
40918;BME280;26644;50.248;19.032;2023-02-12T04:58:19;99669.72;;;4.70;82.23
40918;BME280;26644;50.248;19.032;2023-02-12T05:01:25;99676.22;;;4.62;82.31
40918;BME280;26644;50.248;19.032;2023-02-12T05:04:30;99680.81;;;4.61;82.71
40918;BME280;26644;50.248;19.032;2023-02-12T05:07:36;99681.88;;;4.60;82.58
40918;BME280;26644;50.248;19.032;2023-02-12T05:10:41;99683.09;;;4.51;82.72
40918;BME280;26644;50.248;19.032;2023-02-12T05:13:51;99691.09;;;4.59;82.76
40918;BME280;26644;50.248;19.032;2023-02-12T05:16:56;99683.53;;;4.61;82.72
40918;BME280;26644;50.248;19.032;2023-02-12T05:20:03;99670.34;;;4.52;82.68
40918;BME280;26644;50.248;19.032;2023-02-12T05:23:08;99676.38;;;4.40;82.43
40918;BME280;26644;50.248;19.032;2023-02-12T05:26:17;99704.22;;;4.56;82.14
40918;BME280;26644;50.248;19.032;2023-02-12T05:29:26;99710.72;;;4.55;82.51
40918;BME280;26644;50.248;19.032;2023-02-12T05:32:32;99711.78;;;4.60;82.26
40918;BME280;26644;50.248;19.032;2023-02-12T05:35:36;99695.84;;;4.44;81.91
40918;BME280;26644;50.248;19.032;2023-02-12T05:38:43;99707.16;;;4.41;82.16
40918;BME280;26644;50.248;19.032;2023-02-12T05:41:48;99711.13;;;4.45;82.27
40918;BME280;26644;50.248;19.032;2023-02-12T05:44:56;99735.19;;;4.55;82.31
40918;BME280;26644;50.248;19.032;2023-02-12T05:48:01;99736.88;;;4.56;82.23
40918;BME280;26644;50.248;19.032;2023-02-12T05:51:09;99748.59;;;4.56;82.14
40918;BME280;26644;50.248;19.032;2023-02-12T05:54:17;99729.09;;;4.46;81.83
40918;BME280;26644;50.248;19.032;2023-02-12T05:57:22;99747.53;;;4.51;81.65
40918;BME280;26644;50.248;19.032;2023-02-12T06:00:30;99751.28;;;4.43;81.40
40918;BME280;26644;50.248;19.032;2023-02-12T06:03:36;99764.88;;;4.43;81.57
40918;BME280;26644;50.248;19.032;2023-02-12T06:06:41;99767.16;;;4.33;81.78
40918;BME280;26644;50.248;19.032;2023-02-12T06:09:47;99790.19;;;4.37;81.34
40918;BME280;26644;50.248;19.032;2023-02-12T06:12:53;99783.06;;;4.29;81.86
40918;BME280;26644;50.248;19.032;2023-02-12T06:16:02;99776.31;;;4.18;81.54
40918;BME280;26644;50.248;19.032;2023-02-12T06:19:08;99803.53;;;4.25;81.45
40918;BME280;26644;50.248;19.032;2023-02-12T06:22:14;99803.34;;;4.20;81.38
40918;BME280;26644;50.248;19.032;2023-02-12T06:25:19;99812.28;;;4.07;80.31
40918;BME280;26644;50.248;19.032;2023-02-12T06:28:25;99814.97;;;4.00;80.18
40918;BME280;26644;50.248;19.032;2023-02-12T06:31:34;99813.47;;;3.98;80.26
40918;BME280;26644;50.248;19.032;2023-02-12T06:34:41;99813.22;;;3.86;79.90
40918;BME280;26644;50.248;19.032;2023-02-12T06:37:46;99810.72;;;3.84;79.55
40918;BME280;26644;50.248;19.032;2023-02-12T06:40:52;99843.97;;;3.93;79.03
40918;BME280;26644;50.248;19.032;2023-02-12T06:43:57;99840.63;;;3.91;78.86
40918;BME280;26644;50.248;19.032;2023-02-12T06:47:06;99841.22;;;3.86;78.09
40918;BME280;26644;50.248;19.032;2023-02-12T06:50:11;99849.53;;;3.78;77.68
40918;BME280;26644;50.248;19.032;2023-02-12T06:53:17;99842.09;;;3.58;77.18
40918;BME280;26644;50.248;19.032;2023-02-12T06:56:23;99858.22;;;3.60;77.09
40918;BME280;26644;50.248;19.032;2023-02-12T06:59:30;99851.88;;;3.53;76.67
40918;BME280;26644;50.248;19.032;2023-02-12T07:02:38;99864.41;;;3.47;76.78
40918;BME280;26644;50.248;19.032;2023-02-12T07:05:43;99855.34;;;3.40;77.12
40918;BME280;26644;50.248;19.032;2023-02-12T07:08:49;99879.00;;;3.46;76.55
40918;BME280;26644;50.248;19.032;2023-02-12T07:11:57;99864.19;;;3.20;75.91
40918;BME280;26644;50.248;19.032;2023-02-12T07:15:03;99870.97;;;3.09;75.49
40918;BME280;26644;50.248;19.032;2023-02-12T07:18:12;99872.53;;;2.97;75.58
40918;BME280;26644;50.248;19.032;2023-02-12T07:21:17;99873.28;;;2.91;75.67
40918;BME280;26644;50.248;19.032;2023-02-12T07:24:23;99878.50;;;2.86;75.74
40918;BME280;26644;50.248;19.032;2023-02-12T07:27:28;99878.03;;;2.82;75.52
40918;BME280;26644;50.248;19.032;2023-02-12T07:30:34;99878.34;;;2.72;75.22
40918;BME280;26644;50.248;19.032;2023-02-12T07:33:42;99883.94;;;2.71;75.45
40918;BME280;26644;50.248;19.032;2023-02-12T07:36:48;99869.69;;;2.62;75.42
40918;BME280;26644;50.248;19.032;2023-02-12T07:39:53;99876.28;;;2.74;74.87
40918;BME280;26644;50.248;19.032;2023-02-12T07:42:59;99894.25;;;2.97;74.33
40918;BME280;26644;50.248;19.032;2023-02-12T07:46:06;99914.28;;;3.18;73.82
40918;BME280;26644;50.248;19.032;2023-02-12T07:49:18;99913.53;;;3.31;72.11
40918;BME280;26644;50.248;19.032;2023-02-12T07:52:24;99924.38;;;3.52;71.76
40918;BME280;26644;50.248;19.032;2023-02-12T07:55:30;99923.75;;;3.78;71.02
40918;BME280;26644;50.248;19.032;2023-02-12T07:58:35;99916.63;;;4.13;70.46
40918;BME280;26644;50.248;19.032;2023-02-12T08:01:42;99939.13;;;4.35;68.26
40918;BME280;26644;50.248;19.032;2023-02-12T08:04:54;99932.81;;;4.27;68.23
40918;BME280;26644;50.248;19.032;2023-02-12T08:08:00;99917.25;;;4.08;67.39
40918;BME280;26644;50.248;19.032;2023-02-12T08:11:06;99937.94;;;4.09;67.80
40918;BME280;26644;50.248;19.032;2023-02-12T08:14:16;99951.69;;;4.01;67.03
40918;BME280;26644;50.248;19.032;2023-02-12T08:17:23;99955.88;;;4.03;66.66
40918;BME280;26644;50.248;19.032;2023-02-12T08:20:33;99950.66;;;4.02;66.72
40918;BME280;26644;50.248;19.032;2023-02-12T08:23:38;99976.16;;;4.36;66.13
40918;BME280;26644;50.248;19.032;2023-02-12T08:26:45;99970.81;;;4.56;65.10
40918;BME280;26644;50.248;19.032;2023-02-12T08:29:50;99961.72;;;4.70;64.58
40918;BME280;26644;50.248;19.032;2023-02-12T08:32:55;99973.97;;;5.08;64.69
40918;BME280;26644;50.248;19.032;2023-02-12T08:36:06;99971.94;;;5.57;62.29
40918;BME280;26644;50.248;19.032;2023-02-12T08:39:16;99968.59;;;5.82;60.44
40918;BME280;26644;50.248;19.032;2023-02-12T08:42:22;99982.00;;;5.90;59.50
40918;BME280;26644;50.248;19.032;2023-02-12T08:45:29;99978.41;;;5.89;59.43
40918;BME280;26644;50.248;19.032;2023-02-12T08:48:36;99962.06;;;5.83;59.54
40918;BME280;26644;50.248;19.032;2023-02-12T08:51:47;99987.03;;;6.00;59.20
40918;BME280;26644;50.248;19.032;2023-02-12T08:54:54;99983.88;;;6.09;58.68
40918;BME280;26644;50.248;19.032;2023-02-12T08:58:00;99993.25;;;6.40;57.67
40918;BME280;26644;50.248;19.032;2023-02-12T09:01:09;99992.91;;;6.75;56.00
40918;BME280;26644;50.248;19.032;2023-02-12T09:04:20;100004.50;;;7.23;54.35
40918;BME280;26644;50.248;19.032;2023-02-12T09:07:29;99999.56;;;7.00;53.70
40918;BME280;26644;50.248;19.032;2023-02-12T09:10:38;100010.78;;;7.30;54.00
40918;BME280;26644;50.248;19.032;2023-02-12T09:13:45;100010.25;;;7.47;53.60
40918;BME280;26644;50.248;19.032;2023-02-12T09:16:51;100016.03;;;8.14;51.71
40918;BME280;26644;50.248;19.032;2023-02-12T09:19:58;99997.88;;;8.75;50.04
40918;BME280;26644;50.248;19.032;2023-02-12T09:23:07;100023.13;;;9.75;49.23
40918;BME280;26644;50.248;19.032;2023-02-12T09:26:17;100023.06;;;10.65;46.88
40918;BME280;26644;50.248;19.032;2023-02-12T09:29:24;100039.19;;;11.14;44.64
40918;BME280;26644;50.248;19.032;2023-02-12T09:32:29;100038.97;;;11.44;44.72
40918;BME280;26644;50.248;19.032;2023-02-12T09:35:35;100030.31;;;10.95;43.61
40918;BME280;26644;50.248;19.032;2023-02-12T09:38:44;100019.34;;;10.00;43.72
40918;BME280;26644;50.248;19.032;2023-02-12T09:42:15;100037.69;;;9.15;46.10
40918;BME280;26644;50.248;19.032;2023-02-12T09:45:39;100038.25;;;9.05;46.21
40918;BME280;26644;50.248;19.032;2023-02-12T09:49:02;100046.00;;;9.08;46.47
40918;BME280;26644;50.248;19.032;2023-02-12T09:52:16;100043.88;;;9.41;46.84
40918;BME280;26644;50.248;19.032;2023-02-12T09:55:30;100054.59;;;9.73;45.56
40918;BME280;26644;50.248;19.032;2023-02-12T09:58:42;100032.22;;;10.00;45.41
40918;BME280;26644;50.248;19.032;2023-02-12T10:01:51;100051.16;;;10.55;44.15
40918;BME280;26644;50.248;19.032;2023-02-12T10:04:58;100058.88;;;10.70;43.95
40918;BME280;26644;50.248;19.032;2023-02-12T10:08:26;100053.00;;;10.90;42.96
40918;BME280;26644;50.248;19.032;2023-02-12T10:12:05;100048.41;;;10.55;43.16
40918;BME280;26644;50.248;19.032;2023-02-12T10:15:36;100033.16;;;9.93;43.25
40918;BME280;26644;50.248;19.032;2023-02-12T10:19:01;100007.09;;;9.00;44.70
40918;BME280;26644;50.248;19.032;2023-02-12T10:22:28;100046.44;;;8.68;46.33
40918;BME280;26644;50.248;19.032;2023-02-12T10:25:48;100029.13;;;7.80;47.81
40918;BME280;26644;50.248;19.032;2023-02-12T10:29:10;100047.44;;;7.02;50.26
40918;BME280;26644;50.248;19.032;2023-02-12T10:32:27;100052.00;;;6.56;51.08
40918;BME280;26644;50.248;19.032;2023-02-12T10:35:43;100060.44;;;6.21;52.86
40918;BME280;26644;50.248;19.032;2023-02-12T10:38:57;100036.53;;;5.76;53.70
40918;BME280;26644;50.248;19.032;2023-02-12T10:42:13;100057.22;;;5.57;54.37
40918;BME280;26644;50.248;19.032;2023-02-12T10:45:29;100043.56;;;5.31;54.42
40918;BME280;26644;50.248;19.032;2023-02-12T10:48:39;100060.91;;;5.16;56.58
40918;BME280;26644;50.248;19.032;2023-02-12T10:52:00;100053.53;;;5.03;56.90
40918;BME280;26644;50.248;19.032;2023-02-12T10:55:24;100031.38;;;4.71;56.10
40918;BME280;26644;50.248;19.032;2023-02-12T10:58:31;100048.16;;;4.75;56.28
40918;BME280;26644;50.248;19.032;2023-02-12T11:01:46;100046.88;;;4.71;56.54
40918;BME280;26644;50.248;19.032;2023-02-12T11:04:53;100042.91;;;4.67;56.73
40918;BME280;26644;50.248;19.032;2023-02-12T11:08:00;100055.75;;;4.51;58.21
40918;BME280;26644;50.248;19.032;2023-02-12T11:11:09;100036.00;;;4.36;58.46
40918;BME280;26644;50.248;19.032;2023-02-12T11:14:18;100053.59;;;4.40;58.21
40918;BME280;26644;50.248;19.032;2023-02-12T11:17:34;100049.97;;;4.33;58.65
40918;BME280;26644;50.248;19.032;2023-02-12T11:20:50;100047.66;;;4.30;59.10
40918;BME280;26644;50.248;19.032;2023-02-12T11:24:25;100045.72;;;4.23;58.76
40918;BME280;26644;50.248;19.032;2023-02-12T11:27:34;100042.63;;;4.26;58.95
40918;BME280;26644;50.248;19.032;2023-02-12T11:30:48;100041.34;;;4.22;59.60
40918;BME280;26644;50.248;19.032;2023-02-12T11:34:14;100025.63;;;4.18;59.65
40918;BME280;26644;50.248;19.032;2023-02-12T11:37:20;100041.16;;;4.24;59.75
40918;BME280;26644;50.248;19.032;2023-02-12T11:40:28;100032.38;;;4.28;59.74
40918;BME280;26644;50.248;19.032;2023-02-12T11:43:36;100034.94;;;4.37;59.72
40918;BME280;26644;50.248;19.032;2023-02-12T11:46:48;100028.50;;;4.44;60.23
40918;BME280;26644;50.248;19.032;2023-02-12T11:50:06;100043.19;;;4.50;60.00
40918;BME280;26644;50.248;19.032;2023-02-12T11:53:25;100032.75;;;4.54;60.29
40918;BME280;26644;50.248;19.032;2023-02-12T11:56:42;100017.00;;;4.42;59.36
40918;BME280;26644;50.248;19.032;2023-02-12T11:59:52;100026.22;;;4.48;59.62
40918;BME280;26644;50.248;19.032;2023-02-12T12:03:06;100038.28;;;4.67;59.88
40918;BME280;26644;50.248;19.032;2023-02-12T12:06:31;100033.69;;;4.68;60.22
40918;BME280;26644;50.248;19.032;2023-02-12T12:09:44;100043.13;;;4.72;60.50
40918;BME280;26644;50.248;19.032;2023-02-12T12:13:00;100028.53;;;4.80;60.06
40918;BME280;26644;50.248;19.032;2023-02-12T12:16:13;100031.69;;;4.90;60.17
40918;BME280;26644;50.248;19.032;2023-02-12T12:19:46;100036.13;;;4.98;60.01
40918;BME280;26644;50.248;19.032;2023-02-12T12:23:08;100051.00;;;5.02;60.27
40918;BME280;26644;50.248;19.032;2023-02-12T12:26:23;100024.38;;;4.90;60.49
40918;BME280;26644;50.248;19.032;2023-02-12T12:29:47;100036.94;;;4.85;60.78
40918;BME280;26644;50.248;19.032;2023-02-12T12:33:04;100043.00;;;4.87;60.50
40918;BME280;26644;50.248;19.032;2023-02-12T12:36:46;100042.50;;;4.76;61.12
40918;BME280;26644;50.248;19.032;2023-02-12T12:40:23;100051.34;;;4.78;61.44
40918;BME280;26644;50.248;19.032;2023-02-12T12:44:00;100052.59;;;4.83;61.40
40918;BME280;26644;50.248;19.032;2023-02-12T12:47:30;100046.56;;;4.87;61.70
40918;BME280;26644;50.248;19.032;2023-02-12T12:51:11;100037.56;;;4.93;61.94
40918;BME280;26644;50.248;19.032;2023-02-12T12:54:40;100053.56;;;5.10;61.88
40918;BME280;26644;50.248;19.032;2023-02-12T12:58:16;100058.75;;;4.98;61.71
40918;BME280;26644;50.248;19.032;2023-02-12T13:06:01;100066.88;;;4.85;62.73
40918;BME280;26644;50.248;19.032;2023-02-12T13:09:39;100066.63;;;4.80;62.82
40918;BME280;26644;50.248;19.032;2023-02-12T13:13:17;100045.84;;;4.72;63.06
40918;BME280;26644;50.248;19.032;2023-02-12T13:16:38;100060.97;;;4.81;63.19
40918;BME280;26644;50.248;19.032;2023-02-12T13:20:03;100051.13;;;4.80;63.52
40918;BME280;26644;50.248;19.032;2023-02-12T13:23:17;100057.69;;;4.99;63.35
40918;BME280;26644;50.248;19.032;2023-02-12T13:26:38;100056.53;;;5.15;63.08
40918;BME280;26644;50.248;19.032;2023-02-12T13:30:00;100055.69;;;5.21;62.37
40918;BME280;26644;50.248;19.032;2023-02-12T13:33:17;100056.69;;;5.14;62.34
40918;BME280;26644;50.248;19.032;2023-02-12T13:36:26;100066.59;;;5.28;62.18
40918;BME280;26644;50.248;19.032;2023-02-12T13:39:35;100049.63;;;5.26;62.00
40918;BME280;26644;50.248;19.032;2023-02-12T13:42:49;100064.72;;;5.28;62.34
40918;BME280;26644;50.248;19.032;2023-02-12T13:46:06;100063.66;;;5.30;62.62
40918;BME280;26644;50.248;19.032;2023-02-12T13:49:28;100065.13;;;5.32;61.92
40918;BME280;26644;50.248;19.032;2023-02-12T13:52:55;100069.31;;;5.28;61.90
40918;BME280;26644;50.248;19.032;2023-02-12T13:56:16;100071.44;;;5.26;62.46
40918;BME280;26644;50.248;19.032;2023-02-12T13:59:44;100051.28;;;5.20;62.38
40918;BME280;26644;50.248;19.032;2023-02-12T14:02:54;100070.38;;;5.34;62.77
40918;BME280;26644;50.248;19.032;2023-02-12T14:06:11;100065.78;;;5.34;62.62
40918;BME280;26644;50.248;19.032;2023-02-12T14:09:30;100053.00;;;5.35;62.70
40918;BME280;26644;50.248;19.032;2023-02-12T14:12:38;100057.66;;;5.48;62.72
40918;BME280;26644;50.248;19.032;2023-02-12T14:15:50;100063.09;;;5.54;62.63
40918;BME280;26644;50.248;19.032;2023-02-12T14:23:21;100063.53;;;5.58;63.12
40918;BME280;26644;50.248;19.032;2023-02-12T14:26:37;100067.91;;;5.52;62.81
40918;BME280;26644;50.248;19.032;2023-02-12T14:33:34;100076.91;;;5.33;62.19
40918;BME280;26644;50.248;19.032;2023-02-12T14:36:42;100062.38;;;5.19;62.65
40918;BME280;26644;50.248;19.032;2023-02-12T14:43:43;100059.41;;;5.07;63.56
40918;BME280;26644;50.248;19.032;2023-02-12T14:47:02;100068.44;;;5.07;63.62
40918;BME280;26644;50.248;19.032;2023-02-12T14:50:28;100067.97;;;4.97;63.27
40918;BME280;26644;50.248;19.032;2023-02-12T14:53:53;100072.97;;;4.93;63.82
40918;BME280;26644;50.248;19.032;2023-02-12T14:57:08;100067.94;;;4.90;63.68
40918;BME280;26644;50.248;19.032;2023-02-12T15:00:30;100068.13;;;4.89;63.66
40918;BME280;26644;50.248;19.032;2023-02-12T15:03:46;100078.13;;;4.82;63.83
40918;BME280;26644;50.248;19.032;2023-02-12T15:07:00;100053.75;;;4.60;64.04
40918;BME280;26644;50.248;19.032;2023-02-12T15:10:16;100073.28;;;4.70;63.92
40918;BME280;26644;50.248;19.032;2023-02-12T15:13:30;100080.38;;;4.71;64.21
40918;BME280;26644;50.248;19.032;2023-02-12T15:16:54;100083.25;;;4.63;64.44
40918;BME280;26644;50.248;19.032;2023-02-12T15:20:15;100074.41;;;4.54;64.94
40918;BME280;26644;50.248;19.032;2023-02-12T15:23:38;100064.03;;;4.36;65.28
40918;BME280;26644;50.248;19.032;2023-02-12T15:26:47;100076.63;;;4.44;65.79
40918;BME280;26644;50.248;19.032;2023-02-12T15:29:57;100080.59;;;4.41;65.91
40918;BME280;26644;50.248;19.032;2023-02-12T15:33:05;100068.22;;;4.39;65.96
40918;BME280;26644;50.248;19.032;2023-02-12T15:36:17;100074.50;;;4.39;66.19
40918;BME280;26644;50.248;19.032;2023-02-12T15:39:26;100083.06;;;4.36;66.03
40918;BME280;26644;50.248;19.032;2023-02-12T15:42:37;100087.00;;;4.34;66.21
40918;BME280;26644;50.248;19.032;2023-02-12T15:45:50;100082.34;;;4.27;66.30
40918;BME280;26644;50.248;19.032;2023-02-12T15:48:56;100085.88;;;4.21;66.63
40918;BME280;26644;50.248;19.032;2023-02-12T15:52:06;100075.78;;;4.15;66.90
40918;BME280;26644;50.248;19.032;2023-02-12T15:55:17;100071.53;;;4.06;67.22
40918;BME280;26644;50.248;19.032;2023-02-12T15:58:28;100080.34;;;4.08;67.24
40918;BME280;26644;50.248;19.032;2023-02-12T16:01:39;100085.56;;;4.09;67.37
40918;BME280;26644;50.248;19.032;2023-02-12T16:04:57;100085.13;;;4.06;67.67
40918;BME280;26644;50.248;19.032;2023-02-12T16:08:04;100080.03;;;3.96;68.07
40918;BME280;26644;50.248;19.032;2023-02-12T16:11:10;100076.19;;;3.90;68.01
40918;BME280;26644;50.248;19.032;2023-02-12T16:14:21;100084.59;;;3.95;67.82
40918;BME280;26644;50.248;19.032;2023-02-12T16:17:33;100087.06;;;3.90;68.42
40918;BME280;26644;50.248;19.032;2023-02-12T16:20:40;100085.50;;;3.81;68.72
40918;BME280;26644;50.248;19.032;2023-02-12T16:23:49;100081.25;;;3.72;69.00
40918;BME280;26644;50.248;19.032;2023-02-12T16:26:57;100100.72;;;3.75;69.19
40918;BME280;26644;50.248;19.032;2023-02-12T16:30:24;100098.97;;;3.68;69.32
40918;BME280;26644;50.248;19.032;2023-02-12T16:33:42;100098.56;;;3.49;69.75
40918;BME280;26644;50.248;19.032;2023-02-12T16:36:51;100093.38;;;3.33;69.86
40918;BME280;26644;50.248;19.032;2023-02-12T16:40:20;100089.22;;;3.15;70.80
40918;BME280;26644;50.248;19.032;2023-02-12T16:43:27;100088.19;;;3.01;70.85
40918;BME280;26644;50.248;19.032;2023-02-12T16:46:44;100088.22;;;2.86;71.25
40918;BME280;26644;50.248;19.032;2023-02-12T16:49:59;100085.69;;;2.70;71.69
40918;BME280;26644;50.248;19.032;2023-02-12T16:53:21;100082.63;;;2.58;71.82
40918;BME280;26644;50.248;19.032;2023-02-12T16:56:31;100098.91;;;2.58;72.24
40918;BME280;26644;50.248;19.032;2023-02-12T16:59:40;100110.00;;;2.48;72.63
40918;BME280;26644;50.248;19.032;2023-02-12T17:02:45;100102.88;;;2.32;73.09
40918;BME280;26644;50.248;19.032;2023-02-12T17:05:55;100101.03;;;2.33;73.39
40918;BME280;26644;50.248;19.032;2023-02-12T17:09:00;100119.25;;;2.39;73.66
40918;BME280;26644;50.248;19.032;2023-02-12T17:12:06;100117.56;;;2.38;73.64
40918;BME280;26644;50.248;19.032;2023-02-12T17:15:19;100121.09;;;2.23;73.90
40918;BME280;26644;50.248;19.032;2023-02-12T17:18:29;100108.50;;;2.07;74.41